Latest Weather Observations for Middle Point

IDD60901

Issued at 12:51 pm CST Sunday 16 December 2018 (issued every 10 minutes, with the page automatically refreshed every 10 minutes)

About weather observations | Map of Darwin area stations | Latest observations for Darwin area | Other Formats
Station Details ID: 014041 Name: MIDDLE POINT Lat: -12.61 Lon: 131.30 Height: 14.1 m
Data from the previous 72 hours. | See also: Recent months at Middle Point
Date/Time
CST
Temp
°C
App
Temp
°C
Dew
Point
°C
Rel
Hum
%
Delta-T
°C
Wind Press
QNH
hPa
Press
MSL
hPa
Rain since
9am
mm
Dir  Spd
km/h
Gust
km/h
Spd
kts
Gust
kts
16/12:30pm 35.7 37.9 23.3 48 8.7 WSW 17 26 9 14 1006.4 1006.3 0.0
16/12:00pm 34.3 36.7 23.6 53 7.5 W 17 24 9 13 1006.8 1006.7 0.0
16/11:30am 34.8 38.4 24.4 54 7.3 WSW 13 22 7 12 1007.1 1007.0 0.0
16/11:00am 33.7 37.3 24.3 58 6.6 W 13 20 7 11 1007.3 1007.2 0.0
16/10:30am 33.2 36.3 24.1 59 6.4 W 15 24 8 13 1007.3 1007.2 0.0
16/10:00am 33.0 35.4 24.2 60 6.2 W 19 26 10 14 1007.2 1007.1 0.0
16/09:30am 32.6 35.5 24.4 62 5.8 WSW 17 22 9 12 1007.3 1007.2 0.0
16/09:00am 31.6 34.6 24.7 67 4.9 WSW 17 26 9 14 1007.7 1007.6 -
16/08:30am 30.5 35.1 25.3 74 3.7 WSW 11 17 6 9 1008.0 1007.9 -
16/08:00am 29.0 34.4 25.2 80 2.7 SW 6 9 3 5 1008.3 1008.2 -
16/07:30am 27.7 33.5 25.7 89 1.4 SSE 6 7 3 4 1008.5 1008.4 -
16/07:00am 26.4 33.1 25.4 94 0.7 CALM 0 2 0 1 1007.7 1007.6 -
16/06:30am 25.2 31.2 24.3 95 0.6 CALM 0 0 0 0 1007.0 1006.9 -
16/06:00am 25.1 30.8 24.4 96 0.5 N 2 4 1 2 1006.4 1006.3 -
16/05:30am 25.2 31.2 24.3 95 0.6 CALM 0 0 0 0 1006.0 1005.9 -
16/05:00am 25.1 30.6 24.1 94 0.7 NNW 2 4 1 2 1005.9 1005.8 -
16/04:30am 25.2 29.6 24.5 96 0.5 N 9 13 5 7 1005.0 1004.9 -
16/04:00am 25.4 31.5 24.4 94 0.7 CALM 0 0 0 0 1005.1 1005.0 -
16/03:30am 25.7 31.5 24.5 93 0.8 NNW 2 2 1 1 1004.8 1004.7 -
16/03:00am 25.7 30.8 24.7 94 0.7 NNW 6 6 3 3 1004.7 1004.6 0.0
16/02:30am 25.9 32.0 24.5 92 1.0 CALM 0 0 0 0 1005.1 1005.0 0.0
16/02:00am 26.8 31.9 25.0 90 1.3 S 7 9 4 5 1005.6 1005.5 0.0
16/01:30am 26.8 31.5 25.0 90 1.3 SW 9 9 5 5 1005.7 1005.6 0.0
16/01:00am 26.7 31.8 24.7 89 1.4 WNW 6 6 3 3 1005.9 1005.8 0.0
16/12:30am 26.9 32.5 24.9 89 1.4 W 4 4 2 2 1006.1 1006.0 0.0
16/12:00am 26.9 32.0 24.9 89 1.4 W 7 9 4 5 1006.5 1006.4 0.0
 
Date/Time
CST
Temp
°C
App
Temp
°C
Dew
Point
°C
Rel
Hum
%
Delta-T
°C
Wind Press
QNH
hPa
Press
MSL
hPa
Rain since
9am
mm
Dir  Spd
km/h
Gust
km/h
Spd
kts
Gust
kts
15/11:30pm 27.5 33.1 24.9 86 1.8 WNW 4 6 2 3 1006.7 1006.6 0.0
15/11:00pm 27.5 32.8 24.9 86 1.8 WNW 6 7 3 4 1006.5 1006.4 0.0
15/10:30pm 28.0 32.7 25.0 84 2.1 W 9 11 5 6 1006.1 1006.0 0.0
15/10:00pm 28.0 33.0 24.8 83 2.2 WNW 7 9 4 5 1005.9 1005.8 0.0
15/09:30pm 28.6 33.3 25.0 81 2.5 WNW 9 11 5 6 1005.7 1005.6 0.0
15/09:00pm 29.4 33.3 24.9 77 3.2 W 13 20 7 11 1005.3 1005.2 0.0
15/08:30pm 29.7 34.2 25.2 77 3.2 W 11 15 6 8 1005.3 1005.2 0.0
15/08:00pm 30.3 33.6 25.1 73 3.7 W 17 24 9 13 1004.7 1004.6 0.0
15/07:30pm 30.7 34.4 25.1 72 4.0 W 15 20 8 11 1004.2 1004.1 0.0
15/07:00pm 31.4 34.2 25.0 69 4.5 WNW 19 24 10 13 1003.6 1003.5 0.0
15/06:30pm 32.4 35.1 25.0 65 5.2 WNW 20 28 11 15 1003.3 1003.2 0.0
15/06:00pm 33.3 35.4 24.7 60 6.1 WNW 22 30 12 16 1003.2 1003.1 0.0
15/05:30pm 34.2 36.9 25.6 61 6.2 WNW 22 30 12 16 1003.2 1003.1 0.0
15/05:00pm 34.8 36.9 25.3 57 6.8 WNW 24 32 13 17 1002.8 1002.7 0.0
15/04:30pm 35.4 37.9 25.3 56 7.2 W 22 33 12 18 1002.8 1002.7 0.0
15/04:00pm 35.9 38.2 25.1 53 7.7 W 22 33 12 18 1002.9 1002.8 0.0
15/03:30pm 36.0 38.0 24.6 52 8.1 W 22 35 12 19 1003.0 1002.9 0.0
15/03:00pm 36.2 38.9 25.1 53 7.9 W 20 35 11 19 1003.1 1003.0 0.0
15/02:30pm 36.1 38.8 25.0 52 7.9 W 20 28 11 15 1003.6 1003.5 0.0
15/02:00pm 36.0 39.0 25.5 54 7.5 W 20 28 11 15 1004.0 1003.9 0.0
15/01:30pm 36.4 39.0 24.6 50 8.4 W 19 26 10 14 1004.3 1004.2 0.0
15/01:00pm 35.2 38.3 24.2 53 7.7 W 15 24 8 13 1004.8 1004.7 0.0
15/12:30pm 35.8 38.6 25.0 53 7.7 W 19 28 10 15 1005.2 1005.1 0.0
15/12:00pm 35.2 38.5 24.5 54 7.6 WSW 15 20 8 11 1005.7 1005.6 0.0
15/11:30am 34.1 37.5 24.7 58 6.7 W 15 20 8 11 1006.1 1006.0 0.0
15/11:00am 33.6 36.5 24.5 59 6.4 W 17 26 9 14 1006.6 1006.5 0.0
15/10:30am 33.7 36.8 24.8 59 6.3 W 17 24 9 13 1006.9 1006.8 0.0
15/10:00am 33.1 36.7 25.6 64 5.3 W 17 24 9 13 1007.0 1006.9 0.0
15/09:30am 31.6 35.0 25.2 69 4.5 W 17 24 9 13 1006.9 1006.8 0.0
15/09:00am 31.6 35.3 25.7 71 4.2 W 17 24 9 13 1006.9 1006.8 0.0
15/08:30am 30.4 35.7 25.9 77 3.2 WSW 9 15 5 8 1007.1 1007.0 0.0
15/08:00am 29.6 37.0 26.4 83 2.3 CALM 0 0 0 0 1006.6 1006.5 0.0
15/07:30am 27.6 34.8 26.2 92 1.0 CALM 0 0 0 0 1006.4 1006.3 0.0
15/07:00am 26.7 33.0 26.0 96 0.5 S 4 4 2 2 1006.1 1006.0 0.0
15/06:30am 25.6 31.7 24.4 93 0.8 CALM 0 0 0 0 1005.6 1005.5 0.0
15/06:00am 26.5 31.9 25.1 92 1.0 SW 6 7 3 4 1004.8 1004.7 0.0
15/05:30am 26.6 31.9 25.0 91 1.1 WSW 6 6 3 3 1004.6 1004.5 0.0
15/05:00am 26.9 32.3 25.1 90 1.3 W 6 6 3 3 1004.3 1004.2 0.0
15/04:30am 27.1 32.3 25.1 89 1.4 WNW 7 9 4 5 1004.2 1004.1 0.0
15/04:00am 27.6 32.9 25.2 87 1.7 W 7 11 4 6 1004.2 1004.1 0.0
15/03:30am 27.9 32.6 25.5 87 1.7 WSW 11 15 6 8 1004.2 1004.1 0.0
15/03:00am 27.5 32.6 25.5 89 1.4 WSW 9 11 5 6 1004.5 1004.4 0.0
15/02:30am 27.6 32.9 25.2 87 1.7 W 7 11 4 6 1004.6 1004.5 0.0
15/02:00am 27.6 32.5 25.2 87 1.7 W 9 13 5 7 1004.9 1004.8 0.0
15/01:30am 27.6 32.9 25.2 87 1.7 W 7 9 4 5 1004.9 1004.8 0.0
15/01:00am 27.6 32.9 25.2 87 1.7 W 7 11 4 6 1005.2 1005.1 0.0
15/12:30am 27.6 32.0 25.0 86 1.8 W 11 13 6 7 1005.2 1005.1 0.0
15/12:00am 27.5 32.2 24.9 86 1.8 WNW 9 13 5 7 1005.6 1005.5 0.0
 
Date/Time
CST
Temp
°C
App
Temp
°C
Dew
Point
°C
Rel
Hum
%
Delta-T
°C
Wind Press
QNH
hPa
Press
MSL
hPa
Rain since
9am
mm
Dir  Spd
km/h
Gust
km/h
Spd
kts
Gust
kts
14/11:30pm 27.8 32.5 25.0 85 2.0 W 9 13 5 7 1005.7 1005.6 0.0
14/11:00pm 28.3 33.1 25.1 83 2.2 W 9 13 5 7 1005.9 1005.8 0.0
14/10:30pm 28.7 32.6 24.9 80 2.7 W 13 20 7 11 1005.9 1005.8 0.0
14/10:00pm 29.1 32.8 25.1 79 2.8 W 15 22 8 12 1005.9 1005.8 0.0
14/09:30pm 29.2 33.3 25.2 79 2.8 W 13 17 7 9 1005.6 1005.5 0.0
14/09:00pm 29.4 33.6 25.4 79 2.8 W 13 19 7 10 1005.1 1005.0 0.0
14/08:30pm 29.4 34.4 25.4 79 2.8 W 9 11 5 6 1004.7 1004.6 0.0
14/08:00pm 29.8 34.2 25.1 76 3.3 W 11 15 6 8 1004.4 1004.3 0.0
14/07:30pm 30.1 33.6 24.9 73 3.7 W 15 19 8 10 1003.9 1003.8 0.0
14/07:00pm 30.5 32.8 25.1 73 3.8 W 22 28 12 15 1003.5 1003.4 0.0
14/06:30pm 31.0 33.9 25.1 71 4.2 WNW 19 28 10 15 1003.2 1003.1 0.0
14/06:00pm 31.5 33.3 24.9 68 4.7 WNW 24 30 13 16 1003.1 1003.0 0.0
14/05:30pm 31.9 33.7 25.5 69 4.6 WNW 26 33 14 18 1003.0 1002.9 0.0
14/05:00pm 33.0 34.3 25.3 64 5.5 W 28 37 15 20 1002.7 1002.6 0.0
14/04:30pm 34.9 36.7 24.8 55 7.2 W 24 32 13 17 1002.4 1002.3 0.0
14/04:00pm 35.5 39.0 24.8 54 7.6 WNW 15 24 8 13 1002.5 1002.4 0.0
14/03:30pm 36.5 38.9 23.7 47 9.0 WSW 17 24 9 13 1002.3 1002.2 0.0
14/03:00pm 36.3 38.8 22.5 45 9.6 WSW 13 26 7 14 1002.3 1002.2 0.0
14/02:30pm 36.0 38.9 22.5 45 9.3 W 11 22 6 12 1002.9 1002.8 0.0
14/02:00pm 36.2 39.8 22.4 45 9.5 W 7 20 4 11 1003.3 1003.2 0.0
14/01:30pm 35.9 38.0 22.5 46 9.3 WNW 15 22 8 12 1003.6 1003.5 0.0
14/01:00pm 35.8 38.8 22.7 46 9.1 W 11 22 6 12 1003.7 1003.6 0.0
14/12:30pm 34.8 37.2 21.5 46 9.1 SW 11 19 6 10 1004.4 1004.3 0.0
14/12:00pm 34.5 37.3 21.5 46 8.9 SW 9 19 5 10 1004.8 1004.7 0.0
14/11:30am 34.2 36.8 21.9 48 8.4 WSW 11 22 6 12 1005.4 1005.3 0.0
14/11:00am 32.6 34.6 21.5 52 7.5 W 13 19 7 10 1005.6 1005.5 0.0
14/10:30am 32.1 34.5 21.6 53 7.1 WSW 11 20 6 11 1005.8 1005.7 0.0
14/10:00am 30.8 33.4 21.9 59 6.0 SW 11 17 6 9 1006.2 1006.1 0.0
14/09:30am 29.9 32.2 21.3 60 5.8 SSW 11 19 6 10 1006.4 1006.3 0.0
14/09:00am 29.5 31.8 22.0 64 5.1 S 13 19 7 10 1006.3 1006.2 0.0
14/08:30am 28.4 30.5 21.7 67 4.5 S 13 22 7 12 1006.4 1006.3 0.0
14/08:00am 28.6 30.3 22.3 68 4.3 SSW 17 24 9 13 1006.3 1006.2 0.0
14/07:30am 28.1 31.4 23.2 74 3.4 SSW 11 15 6 8 1005.7 1005.6 0.0
14/07:00am 27.8 33.8 26.0 90 1.3 SW 6 7 3 4 1005.2 1005.1 0.0
14/06:30am 28.0 33.6 25.8 88 1.6 SSW 7 9 4 5 1005.1 1005.0 0.0
14/06:00am 28.2 33.5 25.8 87 1.7 SSW 9 13 5 7 1005.0 1004.9 0.0
14/05:30am 28.3 34.3 25.5 85 2.0 WSW 4 6 2 3 1003.8 1003.7 0.0
14/05:00am 28.8 32.8 25.6 83 2.3 WNW 15 22 8 12 1003.3 1003.2 0.0
14/04:30am 28.6 32.6 25.6 84 2.1 NW 15 26 8 14 1003.1 1003.0 0.0
14/04:00am 28.4 32.8 25.6 85 2.0 WNW 13 22 7 12 1003.7 1003.6 0.0
14/03:30am 28.2 33.3 25.6 86 1.8 W 9 11 5 6 1004.0 1003.9 0.0
14/03:00am 28.1 32.8 25.5 86 1.8 W 11 17 6 9 1003.8 1003.7 0.0
14/02:30am 28.1 32.8 25.5 86 1.8 WNW 11 15 6 8 1004.2 1004.1 0.0
14/02:00am 27.8 33.2 25.4 87 1.7 W 7 11 4 6 1004.8 1004.7 0.0
14/01:30am 27.5 32.3 25.1 87 1.7 WNW 9 13 5 7 1004.3 1004.2 0.0
14/01:00am 28.0 32.4 25.0 84 2.1 W 11 13 6 7 1004.3 1004.2 0.0
14/12:30am 28.3 32.7 25.1 83 2.2 W 11 15 6 8 1004.5 1004.4 0.0
14/12:00am 28.2 32.7 25.2 84 2.1 WNW 11 17 6 9 1005.2 1005.1 0.0
 
Date/Time
CST
Temp
°C
App
Temp
°C
Dew
Point
°C
Rel
Hum
%
Delta-T
°C
Wind Press
QNH
hPa
Press
MSL
hPa
Rain since
9am
mm
Dir  Spd
km/h
Gust
km/h
Spd
kts
Gust
kts
13/11:30pm 28.6 32.7 25.2 82 2.4 WNW 13 19 7 10 1005.1 1005.0 0.0
13/11:00pm 29.1 32.1 25.3 80 2.7 W 19 24 10 13 1005.3 1005.2 0.0
13/10:30pm 29.4 33.3 25.4 79 2.8 W 15 22 8 12 1005.9 1005.8 0.0
13/10:00pm 29.7 33.4 25.2 77 3.2 SW 15 24 8 13 1006.3 1006.2 0.0
13/09:30pm 29.4 33.9 25.2 78 3.0 W 11 17 6 9 1005.7 1005.6 0.0
13/09:00pm 29.8 34.6 25.1 76 3.3 W 9 13 5 7 1005.6 1005.5 0.0
13/08:30pm 30.0 35.8 25.7 78 3.1 W 6 6 3 3 1005.6 1005.5 0.0
13/08:00pm 29.9 35.0 25.0 75 3.4 W 7 9 4 5 1004.7 1004.6 0.0
13/07:30pm 30.5 34.9 24.4 70 4.3 W 9 11 5 6 1004.2 1004.1 0.0
13/07:00pm 31.7 35.1 24.0 63 5.4 WSW 13 19 7 10 1003.9 1003.8 0.0
13/06:30pm 32.8 35.1 23.4 57 6.5 WSW 17 20 9 11 1003.4 1003.3 0.0
13/06:00pm 33.9 36.8 23.9 56 7.0 WSW 15 22 8 12 1002.7 1002.6 0.0
13/05:30pm 34.3 36.9 23.9 54 7.3 WSW 17 22 9 12 1002.1 1002.0 0.0
13/05:00pm 34.6 36.6 23.6 52 7.7 WSW 19 24 10 13 1002.0 1001.9 0.0
13/04:30pm 34.7 36.2 23.1 51 8.1 WSW 20 28 11 15 1002.0 1001.9 0.0
13/04:00pm 35.2 38.9 24.5 54 7.6 WSW 13 22 7 12 1002.2 1002.1 0.0
13/03:30pm 34.7 38.6 24.3 54 7.3 SW 11 20 6 11 1002.7 1002.6 0.0
13/03:00pm 34.4 36.6 24.0 54 7.3 WNW 19 28 10 15 1002.8 1002.7 0.0
13/02:30pm 34.7 37.3 24.6 55 7.2 WSW 19 28 10 15 1003.0 1002.9 0.0
13/02:00pm 34.4 35.7 24.0 54 7.3 WSW 24 33 13 18 1003.4 1003.3 0.0
13/01:30pm 35.3 36.2 23.9 51 8.0 W 26 35 14 19 1003.8 1003.7 0.0
13/01:00pm 35.6 35.3 22.5 46 9.0 WNW 28 37 15 20 1004.1 1004.0 0.0

Latest Capital City Observations: Canberra | Sydney | Melbourne | Brisbane | Adelaide | Perth | Hobart | Darwin

Other Formats:

Comma delimited format used in spreadsheet applications
http://www.bom.gov.au/fwo/IDD60901/IDD60901.95121.axf

JavaScript Object Notation format (JSON) in row-major order
http://www.bom.gov.au/fwo/IDD60901/IDD60901.95121.json